sensor_id;sensor_type;location;lat;lon;timestamp;temperature;humidity
19224;DHT22;9746;47.180;9.776;2023-06-10T06:32:38;22.20;99.90
19224;DHT22;9746;47.180;9.776;2023-06-10T06:35:06;22.40;99.90
19224;DHT22;9746;47.180;9.776;2023-06-10T06:37:35;22.60;99.90
19224;DHT22;9746;47.180;9.776;2023-06-10T06:40:04;22.80;99.90
19224;DHT22;9746;47.180;9.776;2023-06-10T06:42:31;23.00;99.90
19224;DHT22;9746;47.180;9.776;2023-06-10T06:44:59;23.20;99.90
19224;DHT22;9746;47.180;9.776;2023-06-10T06:47:27;23.30;99.90
19224;DHT22;9746;47.180;9.776;2023-06-10T06:49:56;23.30;99.90
19224;DHT22;9746;47.180;9.776;2023-06-10T06:52:25;23.40;99.90
19224;DHT22;9746;47.180;9.776;2023-06-10T06:54:52;23.40;99.90
19224;DHT22;9746;47.180;9.776;2023-06-10T06:57:19;23.40;99.90
19224;DHT22;9746;47.180;9.776;2023-06-10T06:59:47;23.50;99.90
19224;DHT22;9746;47.180;9.776;2023-06-10T07:02:16;23.50;99.90
19224;DHT22;9746;47.180;9.776;2023-06-10T07:04:44;23.70;99.90
19224;DHT22;9746;47.180;9.776;2023-06-10T07:07:16;23.80;99.90
19224;DHT22;9746;47.180;9.776;2023-06-10T07:09:43;24.00;99.90
19224;DHT22;9746;47.180;9.776;2023-06-10T07:12:10;24.20;99.90
19224;DHT22;9746;47.180;9.776;2023-06-10T07:14:38;24.40;99.90
19224;DHT22;9746;47.180;9.776;2023-06-10T07:17:05;24.60;99.90
19224;DHT22;9746;47.180;9.776;2023-06-10T07:19:33;24.70;99.90
19224;DHT22;9746;47.180;9.776;2023-06-10T07:22:00;24.80;99.90
19224;DHT22;9746;47.180;9.776;2023-06-10T07:24:29;24.70;99.90
19224;DHT22;9746;47.180;9.776;2023-06-10T07:26:57;24.60;99.90
19224;DHT22;9746;47.180;9.776;2023-06-10T07:29:24;24.50;99.90
19224;DHT22;9746;47.180;9.776;2023-06-10T07:31:52;24.60;99.90
19224;DHT22;9746;47.180;9.776;2023-06-10T07:34:20;24.50;99.90
19224;DHT22;9746;47.180;9.776;2023-06-10T07:36:47;24.60;99.90
19224;DHT22;9746;47.180;9.776;2023-06-10T07:39:15;24.60;99.90
19224;DHT22;9746;47.180;9.776;2023-06-10T07:41:43;24.60;99.90
19224;DHT22;9746;47.180;9.776;2023-06-10T07:44:12;24.50;99.90
19224;DHT22;9746;47.180;9.776;2023-06-10T07:46:39;24.60;99.90
19224;DHT22;9746;47.180;9.776;2023-06-10T07:49:13;24.60;99.90
19224;DHT22;9746;47.180;9.776;2023-06-10T07:51:40;24.70;99.90
19224;DHT22;9746;47.180;9.776;2023-06-10T07:54:08;24.60;99.90
19224;DHT22;9746;47.180;9.776;2023-06-10T07:56:36;24.50;99.90
19224;DHT22;9746;47.180;9.776;2023-06-10T07:59:06;24.40;99.90
19224;DHT22;9746;47.180;9.776;2023-06-10T08:01:33;24.30;99.90
19224;DHT22;9746;47.180;9.776;2023-06-10T08:04:12;24.10;99.90
19224;DHT22;9746;47.180;9.776;2023-06-10T08:06:40;23.90;99.90
19224;DHT22;9746;47.180;9.776;2023-06-10T08:09:13;23.70;99.90
19224;DHT22;9746;47.180;9.776;2023-06-10T08:11:40;23.60;99.90
19224;DHT22;9746;47.180;9.776;2023-06-10T08:14:10;23.60;99.90
19224;DHT22;9746;47.180;9.776;2023-06-10T08:16:38;23.60;99.90
19224;DHT22;9746;47.180;9.776;2023-06-10T08:19:11;23.70;99.90
19224;DHT22;9746;47.180;9.776;2023-06-10T08:21:39;23.80;99.90
19224;DHT22;9746;47.180;9.776;2023-06-10T08:24:07;24.00;99.90
19224;DHT22;9746;47.180;9.776;2023-06-10T08:26:34;24.20;99.90
19224;DHT22;9746;47.180;9.776;2023-06-10T08:29:02;24.30;99.90
19224;DHT22;9746;47.180;9.776;2023-06-10T08:31:30;24.50;99.90
19224;DHT22;9746;47.180;9.776;2023-06-10T08:33:58;24.70;99.90
19224;DHT22;9746;47.180;9.776;2023-06-10T08:36:25;24.90;99.90
19224;DHT22;9746;47.180;9.776;2023-06-10T08:38:54;24.90;99.90
19224;DHT22;9746;47.180;9.776;2023-06-10T08:41:23;24.90;99.90
19224;DHT22;9746;47.180;9.776;2023-06-10T08:44:03;25.00;99.90
19224;DHT22;9746;47.180;9.776;2023-06-10T08:46:36;25.10;99.90
19224;DHT22;9746;47.180;9.776;2023-06-10T08:49:14;25.20;99.90
19224;DHT22;9746;47.180;9.776;2023-06-10T08:51:45;25.30;99.90
19224;DHT22;9746;47.180;9.776;2023-06-10T08:54:18;25.40;99.90
19224;DHT22;9746;47.180;9.776;2023-06-10T08:56:49;25.60;99.90
19224;DHT22;9746;47.180;9.776;2023-06-10T08:59:20;25.70;99.90
19224;DHT22;9746;47.180;9.776;2023-06-10T09:01:50;25.80;99.90
19224;DHT22;9746;47.180;9.776;2023-06-10T09:04:25;25.90;99.90
19224;DHT22;9746;47.180;9.776;2023-06-10T09:06:53;25.90;99.90
19224;DHT22;9746;47.180;9.776;2023-06-10T09:09:23;25.90;99.90
19224;DHT22;9746;47.180;9.776;2023-06-10T09:11:52;25.90;99.90
19224;DHT22;9746;47.180;9.776;2023-06-10T09:14:20;26.00;99.90
19224;DHT22;9746;47.180;9.776;2023-06-10T09:16:49;25.90;99.90
19224;DHT22;9746;47.180;9.776;2023-06-10T09:19:24;25.80;99.90
19224;DHT22;9746;47.180;9.776;2023-06-10T09:21:52;25.70;99.90
19224;DHT22;9746;47.180;9.776;2023-06-10T09:24:23;25.90;99.90
19224;DHT22;9746;47.180;9.776;2023-06-10T09:27:02;26.20;99.90
19224;DHT22;9746;47.180;9.776;2023-06-10T09:29:48;26.50;99.90
19224;DHT22;9746;47.180;9.776;2023-06-10T09:32:20;26.70;99.90
19224;DHT22;9746;47.180;9.776;2023-06-10T09:34:52;26.40;99.90
19224;DHT22;9746;47.180;9.776;2023-06-10T09:37:22;26.20;99.90
19224;DHT22;9746;47.180;9.776;2023-06-10T09:40:04;26.20;99.90
19224;DHT22;9746;47.180;9.776;2023-06-10T09:42:33;26.20;99.90
19224;DHT22;9746;47.180;9.776;2023-06-10T09:45:11;26.40;99.90
19224;DHT22;9746;47.180;9.776;2023-06-10T09:47:41;26.60;99.90
19224;DHT22;9746;47.180;9.776;2023-06-10T09:50:10;26.60;99.90
19224;DHT22;9746;47.180;9.776;2023-06-10T09:52:38;26.70;99.90
19224;DHT22;9746;47.180;9.776;2023-06-10T09:55:10;27.10;99.90
19224;DHT22;9746;47.180;9.776;2023-06-10T09:57:37;27.20;99.90
19224;DHT22;9746;47.180;9.776;2023-06-10T10:00:09;27.30;99.90
19224;DHT22;9746;47.180;9.776;2023-06-10T10:02:46;27.60;99.90
19224;DHT22;9746;47.180;9.776;2023-06-10T10:05:17;27.90;99.90
19224;DHT22;9746;47.180;9.776;2023-06-10T10:07:45;28.30;99.90
19224;DHT22;9746;47.180;9.776;2023-06-10T10:10:18;28.40;99.90
19224;DHT22;9746;47.180;9.776;2023-06-10T10:12:47;28.50;99.90
19224;DHT22;9746;47.180;9.776;2023-06-10T10:15:18;28.50;99.90
19224;DHT22;9746;47.180;9.776;2023-06-10T10:17:52;28.50;99.90
19224;DHT22;9746;47.180;9.776;2023-06-10T10:20:26;28.70;99.90
19224;DHT22;9746;47.180;9.776;2023-06-10T10:22:57;28.70;99.90
19224;DHT22;9746;47.180;9.776;2023-06-10T10:25:28;28.60;99.90
19224;DHT22;9746;47.180;9.776;2023-06-10T10:28:06;28.70;99.90
19224;DHT22;9746;47.180;9.776;2023-06-10T10:30:40;29.00;99.90
19224;DHT22;9746;47.180;9.776;2023-06-10T10:33:18;29.10;99.90
19224;DHT22;9746;47.180;9.776;2023-06-10T10:35:46;29.30;99.90
19224;DHT22;9746;47.180;9.776;2023-06-10T10:38:14;29.20;99.90
19224;DHT22;9746;47.180;9.776;2023-06-10T10:40:44;28.90;99.90
19224;DHT22;9746;47.180;9.776;2023-06-10T10:43:13;28.60;99.90
19224;DHT22;9746;47.180;9.776;2023-06-10T10:45:42;28.50;99.90
19224;DHT22;9746;47.180;9.776;2023-06-10T10:48:10;28.60;99.90
19224;DHT22;9746;47.180;9.776;2023-06-10T10:50:58;28.90;99.90
19224;DHT22;9746;47.180;9.776;2023-06-10T10:53:25;29.20;99.90
19224;DHT22;9746;47.180;9.776;2023-06-10T10:55:59;29.50;99.90
19224;DHT22;9746;47.180;9.776;2023-06-10T10:58:31;29.80;99.90
19224;DHT22;9746;47.180;9.776;2023-06-10T11:00:59;30.00;99.90
19224;DHT22;9746;47.180;9.776;2023-06-10T11:03:29;30.10;99.90
19224;DHT22;9746;47.180;9.776;2023-06-10T11:06:01;29.90;99.90
19224;DHT22;9746;47.180;9.776;2023-06-10T11:08:49;29.90;99.90
19224;DHT22;9746;47.180;9.776;2023-06-10T11:11:21;30.00;99.90
19224;DHT22;9746;47.180;9.776;2023-06-10T11:14:07;30.30;99.90
19224;DHT22;9746;47.180;9.776;2023-06-10T11:16:40;30.30;99.90
19224;DHT22;9746;47.180;9.776;2023-06-10T11:19:08;30.10;99.90
19224;DHT22;9746;47.180;9.776;2023-06-10T11:21:59;30.20;99.90
19224;DHT22;9746;47.180;9.776;2023-06-10T11:24:28;30.50;99.90
19224;DHT22;9746;47.180;9.776;2023-06-10T11:27:15;30.70;99.90
19224;DHT22;9746;47.180;9.776;2023-06-10T11:29:58;30.60;99.90
19224;DHT22;9746;47.180;9.776;2023-06-10T11:32:44;30.50;99.90
19224;DHT22;9746;47.180;9.776;2023-06-10T11:35:12;30.40;99.90
19224;DHT22;9746;47.180;9.776;2023-06-10T11:37:41;30.80;99.90
19224;DHT22;9746;47.180;9.776;2023-06-10T11:40:12;31.10;99.90
19224;DHT22;9746;47.180;9.776;2023-06-10T11:42:40;31.30;99.90
19224;DHT22;9746;47.180;9.776;2023-06-10T11:45:10;31.70;99.90
19224;DHT22;9746;47.180;9.776;2023-06-10T11:47:55;31.70;99.90
19224;DHT22;9746;47.180;9.776;2023-06-10T11:50:30;31.40;99.90
19224;DHT22;9746;47.180;9.776;2023-06-10T11:53:00;31.50;99.90
19224;DHT22;9746;47.180;9.776;2023-06-10T11:55:41;31.90;99.90
19224;DHT22;9746;47.180;9.776;2023-06-10T11:58:13;32.10;99.90
19224;DHT22;9746;47.180;9.776;2023-06-10T12:00:47;32.30;99.90
19224;DHT22;9746;47.180;9.776;2023-06-10T12:03:14;32.00;99.90
19224;DHT22;9746;47.180;9.776;2023-06-10T12:05:55;31.70;99.90
19224;DHT22;9746;47.180;9.776;2023-06-10T12:08:25;31.40;99.90
19224;DHT22;9746;47.180;9.776;2023-06-10T12:10:54;31.80;99.90
19224;DHT22;9746;47.180;9.776;2023-06-10T12:13:22;32.50;99.90
19224;DHT22;9746;47.180;9.776;2023-06-10T12:15:50;33.30;99.90
19224;DHT22;9746;47.180;9.776;2023-06-10T12:18:18;34.20;99.90
19224;DHT22;9746;47.180;9.776;2023-06-10T12:20:47;35.20;99.40
19224;DHT22;9746;47.180;9.776;2023-06-10T12:23:15;35.40;96.70
19224;DHT22;9746;47.180;9.776;2023-06-10T12:25:51;34.40;96.10
19224;DHT22;9746;47.180;9.776;2023-06-10T12:28:21;34.60;97.00
19224;DHT22;9746;47.180;9.776;2023-06-10T12:30:49;34.40;96.50
19224;DHT22;9746;47.180;9.776;2023-06-10T12:33:21;35.00;96.40
19224;DHT22;9746;47.180;9.776;2023-06-10T12:35:53;34.00;95.90
19224;DHT22;9746;47.180;9.776;2023-06-10T12:38:23;34.50;95.50
19224;DHT22;9746;47.180;9.776;2023-06-10T12:40:54;33.90;95.30
19224;DHT22;9746;47.180;9.776;2023-06-10T12:43:28;33.70;96.20
19224;DHT22;9746;47.180;9.776;2023-06-10T12:46:10;34.10;95.60
19224;DHT22;9746;47.180;9.776;2023-06-10T12:48:49;33.90;95.10
19224;DHT22;9746;47.180;9.776;2023-06-10T12:51:18;33.60;95.00
19224;DHT22;9746;47.180;9.776;2023-06-10T12:53:45;33.70;95.60
19224;DHT22;9746;47.180;9.776;2023-06-10T12:56:17;34.10;94.80
19224;DHT22;9746;47.180;9.776;2023-06-10T12:58:45;34.00;96.40
19224;DHT22;9746;47.180;9.776;2023-06-10T13:01:15;33.70;98.40
19224;DHT22;9746;47.180;9.776;2023-06-10T13:03:42;33.10;99.90
19224;DHT22;9746;47.180;9.776;2023-06-10T13:06:11;32.50;99.90
19224;DHT22;9746;47.180;9.776;2023-06-10T13:08:38;32.00;99.90
19224;DHT22;9746;47.180;9.776;2023-06-10T13:11:06;31.40;99.90
19224;DHT22;9746;47.180;9.776;2023-06-10T13:13:36;30.70;99.90
19224;DHT22;9746;47.180;9.776;2023-06-10T13:16:05;30.20;99.90
19224;DHT22;9746;47.180;9.776;2023-06-10T13:18:33;29.40;99.90
19224;DHT22;9746;47.180;9.776;2023-06-10T13:21:05;28.70;99.90
19224;DHT22;9746;47.180;9.776;2023-06-10T13:23:32;28.30;99.90
19224;DHT22;9746;47.180;9.776;2023-06-10T13:26:02;27.60;99.90
19224;DHT22;9746;47.180;9.776;2023-06-10T13:28:29;27.30;99.90
19224;DHT22;9746;47.180;9.776;2023-06-10T13:30:58;26.70;99.90
19224;DHT22;9746;47.180;9.776;2023-06-10T13:33:26;26.00;99.90
19224;DHT22;9746;47.180;9.776;2023-06-10T13:35:53;25.90;99.90
19224;DHT22;9746;47.180;9.776;2023-06-10T13:38:20;25.90;99.90
19224;DHT22;9746;47.180;9.776;2023-06-10T13:40:48;26.00;99.90
19224;DHT22;9746;47.180;9.776;2023-06-10T13:43:16;26.10;99.90
19224;DHT22;9746;47.180;9.776;2023-06-10T13:45:44;26.10;99.90
19224;DHT22;9746;47.180;9.776;2023-06-10T13:48:13;26.10;99.90
19224;DHT22;9746;47.180;9.776;2023-06-10T13:50:43;26.00;99.90
19224;DHT22;9746;47.180;9.776;2023-06-10T13:53:11;26.50;99.90
19224;DHT22;9746;47.180;9.776;2023-06-10T13:55:39;27.00;99.90
19224;DHT22;9746;47.180;9.776;2023-06-10T13:58:08;27.80;99.90
19224;DHT22;9746;47.180;9.776;2023-06-10T14:00:35;28.30;99.90
19224;DHT22;9746;47.180;9.776;2023-06-10T14:03:03;28.60;99.90
19224;DHT22;9746;47.180;9.776;2023-06-10T14:05:32;28.60;99.90
19224;DHT22;9746;47.180;9.776;2023-06-10T14:08:00;28.90;99.90
19224;DHT22;9746;47.180;9.776;2023-06-10T14:10:29;29.50;99.90
19224;DHT22;9746;47.180;9.776;2023-06-10T14:12:57;30.30;99.90
19224;DHT22;9746;47.180;9.776;2023-06-10T14:15:25;31.10;99.90
19224;DHT22;9746;47.180;9.776;2023-06-10T14:17:52;31.70;99.90
19224;DHT22;9746;47.180;9.776;2023-06-10T14:20:20;32.40;99.90
19224;DHT22;9746;47.180;9.776;2023-06-10T14:22:48;33.20;99.90
19224;DHT22;9746;47.180;9.776;2023-06-10T14:25:25;33.10;99.90
19224;DHT22;9746;47.180;9.776;2023-06-10T14:27:52;32.60;99.90
19224;DHT22;9746;47.180;9.776;2023-06-10T14:30:26;31.80;99.90
19224;DHT22;9746;47.180;9.776;2023-06-10T14:32:53;30.90;99.90
19224;DHT22;9746;47.180;9.776;2023-06-10T14:35:22;30.10;99.90
19224;DHT22;9746;47.180;9.776;2023-06-10T14:37:50;28.90;99.90
19224;DHT22;9746;47.180;9.776;2023-06-10T14:40:18;27.20;99.90
19224;DHT22;9746;47.180;9.776;2023-06-10T14:42:48;26.00;99.90
19224;DHT22;9746;47.180;9.776;2023-06-10T14:45:17;25.10;99.90
19224;DHT22;9746;47.180;9.776;2023-06-10T14:47:45;24.40;99.90
19224;DHT22;9746;47.180;9.776;2023-06-10T14:50:13;23.90;99.90
19224;DHT22;9746;47.180;9.776;2023-06-10T14:52:41;23.10;99.90
19224;DHT22;9746;47.180;9.776;2023-06-10T14:55:16;22.20;99.90
19224;DHT22;9746;47.180;9.776;2023-06-10T14:57:43;21.10;99.90
19224;DHT22;9746;47.180;9.776;2023-06-10T15:00:18;20.50;99.90
19224;DHT22;9746;47.180;9.776;2023-06-10T15:02:48;20.30;99.90
19224;DHT22;9746;47.180;9.776;2023-06-10T15:05:16;20.40;99.90
19224;DHT22;9746;47.180;9.776;2023-06-10T15:07:45;20.60;99.90
19224;DHT22;9746;47.180;9.776;2023-06-10T15:10:15;20.70;99.90
19224;DHT22;9746;47.180;9.776;2023-06-10T15:12:44;20.80;99.90
19224;DHT22;9746;47.180;9.776;2023-06-10T15:15:13;20.70;99.90
19224;DHT22;9746;47.180;9.776;2023-06-10T15:17:43;20.60;99.90
19224;DHT22;9746;47.180;9.776;2023-06-10T15:20:17;20.50;99.90
19224;DHT22;9746;47.180;9.776;2023-06-10T15:22:49;20.90;99.90
19224;DHT22;9746;47.180;9.776;2023-06-10T15:25:22;22.10;99.90
19224;DHT22;9746;47.180;9.776;2023-06-10T15:27:49;24.20;99.90
19224;DHT22;9746;47.180;9.776;2023-06-10T15:30:19;26.00;99.90
19224;DHT22;9746;47.180;9.776;2023-06-10T15:32:46;27.10;99.90
19224;DHT22;9746;47.180;9.776;2023-06-10T15:35:15;27.30;99.90
19224;DHT22;9746;47.180;9.776;2023-06-10T15:37:43;28.20;99.90
19224;DHT22;9746;47.180;9.776;2023-06-10T15:40:11;29.20;99.90
19224;DHT22;9746;47.180;9.776;2023-06-10T15:42:48;30.40;99.90
19224;DHT22;9746;47.180;9.776;2023-06-10T15:45:29;31.10;99.90
19224;DHT22;9746;47.180;9.776;2023-06-10T15:48:04;31.80;99.90
19224;DHT22;9746;47.180;9.776;2023-06-10T15:50:33;31.40;99.90
19224;DHT22;9746;47.180;9.776;2023-06-10T15:53:01;31.20;99.90
19224;DHT22;9746;47.180;9.776;2023-06-10T15:55:31;30.70;99.90
19224;DHT22;9746;47.180;9.776;2023-06-10T15:58:00;29.90;99.90
19224;DHT22;9746;47.180;9.776;2023-06-10T16:00:36;29.10;99.90
19224;DHT22;9746;47.180;9.776;2023-06-10T16:03:04;28.70;99.90
19224;DHT22;9746;47.180;9.776;2023-06-10T16:05:33;27.70;99.90
19224;DHT22;9746;47.180;9.776;2023-06-10T16:08:00;26.80;99.90
19224;DHT22;9746;47.180;9.776;2023-06-10T16:10:30;26.30;99.90
19224;DHT22;9746;47.180;9.776;2023-06-10T16:12:59;25.60;99.90
19224;DHT22;9746;47.180;9.776;2023-06-10T16:15:30;25.60;99.90
19224;DHT22;9746;47.180;9.776;2023-06-10T16:17:57;26.30;99.90
19224;DHT22;9746;47.180;9.776;2023-06-10T16:20:25;27.00;99.90
19224;DHT22;9746;47.180;9.776;2023-06-10T16:23:07;27.50;99.90
19224;DHT22;9746;47.180;9.776;2023-06-10T16:25:35;28.10;99.90
19224;DHT22;9746;47.180;9.776;2023-06-10T16:28:05;29.00;99.90
19224;DHT22;9746;47.180;9.776;2023-06-10T16:30:33;29.40;99.90
19224;DHT22;9746;47.180;9.776;2023-06-10T16:33:01;29.00;99.90
19224;DHT22;9746;47.180;9.776;2023-06-10T16:35:28;28.70;99.90
19224;DHT22;9746;47.180;9.776;2023-06-10T16:38:08;28.20;99.90
19224;DHT22;9746;47.180;9.776;2023-06-10T16:40:35;27.60;99.90
19224;DHT22;9746;47.180;9.776;2023-06-10T16:43:02;27.00;99.90
19224;DHT22;9746;47.180;9.776;2023-06-10T16:45:31;26.30;99.90
19224;DHT22;9746;47.180;9.776;2023-06-10T16:47:59;25.50;99.90
19224;DHT22;9746;47.180;9.776;2023-06-10T16:50:27;24.60;99.90
19224;DHT22;9746;47.180;9.776;2023-06-10T16:52:58;24.20;99.90
19224;DHT22;9746;47.180;9.776;2023-06-10T16:55:26;23.90;99.90
19224;DHT22;9746;47.180;9.776;2023-06-10T16:57:53;23.80;99.90
19224;DHT22;9746;47.180;9.776;2023-06-10T17:00:21;23.60;99.90
19224;DHT22;9746;47.180;9.776;2023-06-10T17:02:56;23.60;99.90
19224;DHT22;9746;47.180;9.776;2023-06-10T17:05:23;23.50;99.90
19224;DHT22;9746;47.180;9.776;2023-06-10T17:07:51;23.40;99.90
19224;DHT22;9746;47.180;9.776;2023-06-10T17:10:19;23.40;99.90
19224;DHT22;9746;47.180;9.776;2023-06-10T17:12:46;23.20;99.90
19224;DHT22;9746;47.180;9.776;2023-06-10T17:15:14;23.10;99.90
19224;DHT22;9746;47.180;9.776;2023-06-10T17:17:41;23.00;99.90
19224;DHT22;9746;47.180;9.776;2023-06-10T17:20:11;22.90;99.90
19224;DHT22;9746;47.180;9.776;2023-06-10T17:22:40;22.80;99.90
19224;DHT22;9746;47.180;9.776;2023-06-10T17:25:08;22.70;99.90
19224;DHT22;9746;47.180;9.776;2023-06-10T17:27:39;22.50;99.90
19224;DHT22;9746;47.180;9.776;2023-06-10T17:30:08;22.30;99.90
19224;DHT22;9746;47.180;9.776;2023-06-10T17:32:37;22.10;99.90
19224;DHT22;9746;47.180;9.776;2023-06-10T17:35:06;21.60;99.90
19224;DHT22;9746;47.180;9.776;2023-06-10T17:37:36;21.30;99.90
19224;DHT22;9746;47.180;9.776;2023-06-10T17:40:05;21.30;99.90
19224;DHT22;9746;47.180;9.776;2023-06-10T17:42:33;21.30;99.90
19224;DHT22;9746;47.180;9.776;2023-06-10T17:45:03;21.40;99.90
19224;DHT22;9746;47.180;9.776;2023-06-10T17:47:33;21.50;99.90
19224;DHT22;9746;47.180;9.776;2023-06-10T17:50:01;21.50;99.90
19224;DHT22;9746;47.180;9.776;2023-06-10T17:52:29;21.60;99.90
19224;DHT22;9746;47.180;9.776;2023-06-10T17:54:58;21.60;99.90
19224;DHT22;9746;47.180;9.776;2023-06-10T17:57:26;21.60;99.90
19224;DHT22;9746;47.180;9.776;2023-06-10T17:59:54;21.50;99.90
19224;DHT22;9746;47.180;9.776;2023-06-10T18:02:24;21.40;99.90
19224;DHT22;9746;47.180;9.776;2023-06-10T18:04:52;21.30;99.90
19224;DHT22;9746;47.180;9.776;2023-06-10T18:07:27;21.30;99.90
19224;DHT22;9746;47.180;9.776;2023-06-10T18:09:55;21.10;99.90
19224;DHT22;9746;47.180;9.776;2023-06-10T18:12:24;21.10;99.90
19224;DHT22;9746;47.180;9.776;2023-06-10T18:14:51;21.10;99.90
19224;DHT22;9746;47.180;9.776;2023-06-10T18:17:27;21.00;99.90
19224;DHT22;9746;47.180;9.776;2023-06-10T18:19:55;20.90;99.90
19224;DHT22;9746;47.180;9.776;2023-06-10T18:22:24;20.90;99.90
19224;DHT22;9746;47.180;9.776;2023-06-10T18:24:52;20.90;99.90
19224;DHT22;9746;47.180;9.776;2023-06-10T18:27:20;20.90;99.90
19224;DHT22;9746;47.180;9.776;2023-06-10T18:29:49;20.90;99.90
19224;DHT22;9746;47.180;9.776;2023-06-10T18:32:16;20.90;99.90
19224;DHT22;9746;47.180;9.776;2023-06-10T18:34:44;20.90;99.90
19224;DHT22;9746;47.180;9.776;2023-06-10T18:37:12;20.80;99.90
19224;DHT22;9746;47.180;9.776;2023-06-10T18:39:39;20.80;99.90
19224;DHT22;9746;47.180;9.776;2023-06-10T18:42:12;20.80;99.90
19224;DHT22;9746;47.180;9.776;2023-06-10T18:44:40;20.80;99.90
19224;DHT22;9746;47.180;9.776;2023-06-10T18:47:15;20.70;99.90
19224;DHT22;9746;47.180;9.776;2023-06-10T18:49:42;20.70;99.90
19224;DHT22;9746;47.180;9.776;2023-06-10T18:52:12;20.70;99.90
19224;DHT22;9746;47.180;9.776;2023-06-10T18:54:40;20.60;99.90
19224;DHT22;9746;47.180;9.776;2023-06-10T18:57:09;20.60;99.90
19224;DHT22;9746;47.180;9.776;2023-06-10T18:59:36;20.40;99.90
19224;DHT22;9746;47.180;9.776;2023-06-10T19:02:07;20.30;99.90
19224;DHT22;9746;47.180;9.776;2023-06-10T19:04:35;20.20;99.90
19224;DHT22;9746;47.180;9.776;2023-06-10T19:07:05;19.90;99.90
19224;DHT22;9746;47.180;9.776;2023-06-10T19:09:33;19.70;99.90
19224;DHT22;9746;47.180;9.776;2023-06-10T19:12:01;19.60;99.90
19224;DHT22;9746;47.180;9.776;2023-06-10T19:14:28;19.60;99.90
19224;DHT22;9746;47.180;9.776;2023-06-10T19:16:56;19.50;99.90
19224;DHT22;9746;47.180;9.776;2023-06-10T19:19:23;19.50;99.90
19224;DHT22;9746;47.180;9.776;2023-06-10T19:21:52;19.50;99.90
19224;DHT22;9746;47.180;9.776;2023-06-10T19:24:19;19.50;99.90
19224;DHT22;9746;47.180;9.776;2023-06-10T19:26:47;19.40;99.90
19224;DHT22;9746;47.180;9.776;2023-06-10T19:29:14;19.40;99.90
19224;DHT22;9746;47.180;9.776;2023-06-10T19:31:42;19.50;99.90
19224;DHT22;9746;47.180;9.776;2023-06-10T19:34:09;19.40;99.90
19224;DHT22;9746;47.180;9.776;2023-06-10T19:36:38;19.30;99.90
19224;DHT22;9746;47.180;9.776;2023-06-10T19:39:07;19.30;99.90
19224;DHT22;9746;47.180;9.776;2023-06-10T19:41:36;19.20;99.90
19224;DHT22;9746;47.180;9.776;2023-06-10T19:44:10;19.20;99.90
19224;DHT22;9746;47.180;9.776;2023-06-10T19:46:38;19.20;99.90
19224;DHT22;9746;47.180;9.776;2023-06-10T19:49:14;19.20;99.90
19224;DHT22;9746;47.180;9.776;2023-06-10T19:51:42;19.20;99.90
19224;DHT22;9746;47.180;9.776;2023-06-10T19:54:15;19.20;99.90
19224;DHT22;9746;47.180;9.776;2023-06-10T19:56:42;19.10;99.90
19224;DHT22;9746;47.180;9.776;2023-06-10T19:59:16;19.10;99.90
19224;DHT22;9746;47.180;9.776;2023-06-10T20:01:43;19.00;99.90
19224;DHT22;9746;47.180;9.776;2023-06-10T20:04:12;19.00;99.90
19224;DHT22;9746;47.180;9.776;2023-06-10T20:06:39;18.90;99.90
19224;DHT22;9746;47.180;9.776;2023-06-10T20:09:07;18.80;99.90
19224;DHT22;9746;47.180;9.776;2023-06-10T20:11:36;18.80;99.90
19224;DHT22;9746;47.180;9.776;2023-06-10T20:14:06;18.80;99.90
19224;DHT22;9746;47.180;9.776;2023-06-10T20:16:34;18.70;99.90
19224;DHT22;9746;47.180;9.776;2023-06-10T20:19:02;18.70;99.90
19224;DHT22;9746;47.180;9.776;2023-06-10T20:21:31;18.70;99.90
19224;DHT22;9746;47.180;9.776;2023-06-10T20:24:03;18.70;99.90
19224;DHT22;9746;47.180;9.776;2023-06-10T20:26:32;18.60;99.90
19224;DHT22;9746;47.180;9.776;2023-06-10T20:29:02;18.50;99.90
19224;DHT22;9746;47.180;9.776;2023-06-10T20:31:29;18.50;99.90
19224;DHT22;9746;47.180;9.776;2023-06-10T20:33:58;18.50;99.90
19224;DHT22;9746;47.180;9.776;2023-06-10T20:36:27;18.50;99.90
19224;DHT22;9746;47.180;9.776;2023-06-10T20:39:04;18.50;99.90
19224;DHT22;9746;47.180;9.776;2023-06-10T20:41:33;18.40;99.90
19224;DHT22;9746;47.180;9.776;2023-06-10T20:44:03;18.40;99.90
19224;DHT22;9746;47.180;9.776;2023-06-10T20:46:30;18.30;99.90
19224;DHT22;9746;47.180;9.776;2023-06-10T20:49:04;18.30;99.90
19224;DHT22;9746;47.180;9.776;2023-06-10T20:51:31;18.30;99.90
19224;DHT22;9746;47.180;9.776;2023-06-10T20:53:59;18.20;99.90
19224;DHT22;9746;47.180;9.776;2023-06-10T20:56:27;18.20;99.90
19224;DHT22;9746;47.180;9.776;2023-06-10T20:58:57;18.10;99.90
